sensor_id;sensor_type;location;lat;lon;timestamp;pressure;altitude;pressure_sealevel;temperature;humidity
56330;BME280;42236;48.058;10.632;2023-03-14T00:02:12;93310.06;;;9.11;91.32
56330;BME280;42236;48.058;10.632;2023-03-14T00:04:57;93315.84;;;9.13;91.19
56330;BME280;42236;48.058;10.632;2023-03-14T00:07:43;93296.25;;;9.12;91.29
56330;BME280;42236;48.058;10.632;2023-03-14T00:10:29;93298.59;;;9.14;91.30
56330;BME280;42236;48.058;10.632;2023-03-14T00:13:14;93302.03;;;9.14;91.29
56330;BME280;42236;48.058;10.632;2023-03-14T00:16:05;93317.03;;;9.15;91.04
56330;BME280;42236;48.058;10.632;2023-03-14T00:18:51;93308.25;;;9.18;90.83
56330;BME280;42236;48.058;10.632;2023-03-14T00:21:37;93304.06;;;9.21;90.21
56330;BME280;42236;48.058;10.632;2023-03-14T00:24:22;93316.00;;;9.24;90.68
56330;BME280;42236;48.058;10.632;2023-03-14T00:27:08;93317.56;;;9.25;90.70
56330;BME280;42236;48.058;10.632;2023-03-14T00:29:53;93319.13;;;9.26;90.83
56330;BME280;42236;48.058;10.632;2023-03-14T00:32:39;93326.03;;;9.27;90.69
56330;BME280;42236;48.058;10.632;2023-03-14T00:35:25;93332.09;;;9.20;91.95
56330;BME280;42236;48.058;10.632;2023-03-14T00:38:10;93335.16;;;9.18;92.58
56330;BME280;42236;48.058;10.632;2023-03-14T00:40:56;93336.25;;;9.14;93.02
56330;BME280;42236;48.058;10.632;2023-03-14T00:43:42;93344.63;;;9.09;93.68
56330;BME280;42236;48.058;10.632;2023-03-14T00:46:28;93345.63;;;8.97;94.57
56330;BME280;42236;48.058;10.632;2023-03-14T00:49:13;93344.66;;;8.86;95.20
56330;BME280;42236;48.058;10.632;2023-03-14T00:51:59;93342.16;;;8.73;95.61
56330;BME280;42236;48.058;10.632;2023-03-14T00:54:45;93351.19;;;8.62;95.98
56330;BME280;42236;48.058;10.632;2023-03-14T00:57:30;93353.31;;;8.49;96.96
56330;BME280;42236;48.058;10.632;2023-03-14T01:00:16;93362.69;;;8.39;97.54
56330;BME280;42236;48.058;10.632;2023-03-14T01:03:02;93369.06;;;8.31;97.65
56330;BME280;42236;48.058;10.632;2023-03-14T01:05:48;93369.75;;;8.24;98.42
56330;BME280;42236;48.058;10.632;2023-03-14T01:08:34;93377.28;;;8.19;99.32
56330;BME280;42236;48.058;10.632;2023-03-14T01:11:23;93383.34;;;8.12;99.92
56330;BME280;42236;48.058;10.632;2023-03-14T01:14:10;93385.59;;;8.10;99.70
56330;BME280;42236;48.058;10.632;2023-03-14T01:16:55;93389.69;;;8.04;100.00
56330;BME280;42236;48.058;10.632;2023-03-14T01:19:46;93382.34;;;8.01;100.00
56330;BME280;42236;48.058;10.632;2023-03-14T01:22:31;93383.84;;;7.98;100.00
56330;BME280;42236;48.058;10.632;2023-03-14T01:25:17;93396.06;;;7.96;100.00
56330;BME280;42236;48.058;10.632;2023-03-14T01:28:03;93392.19;;;7.93;100.00
56330;BME280;42236;48.058;10.632;2023-03-14T01:30:49;93379.44;;;7.90;100.00
56330;BME280;42236;48.058;10.632;2023-03-14T01:33:35;93377.47;;;7.87;100.00
56330;BME280;42236;48.058;10.632;2023-03-14T01:36:20;93359.88;;;7.89;100.00
56330;BME280;42236;48.058;10.632;2023-03-14T01:39:06;93331.53;;;7.92;100.00
56330;BME280;42236;48.058;10.632;2023-03-14T01:41:53;93320.09;;;7.95;100.00
56330;BME280;42236;48.058;10.632;2023-03-14T01:44:52;93310.56;;;7.98;100.00
56330;BME280;42236;48.058;10.632;2023-03-14T01:47:38;93303.28;;;7.98;100.00
56330;BME280;42236;48.058;10.632;2023-03-14T01:50:24;93283.28;;;7.96;100.00
56330;BME280;42236;48.058;10.632;2023-03-14T01:53:10;93275.56;;;7.94;100.00
56330;BME280;42236;48.058;10.632;2023-03-14T01:55:56;93265.13;;;7.89;100.00
56330;BME280;42236;48.058;10.632;2023-03-14T01:58:45;93249.75;;;7.86;100.00
56330;BME280;42236;48.058;10.632;2023-03-14T02:01:33;93230.81;;;7.79;100.00
56330;BME280;42236;48.058;10.632;2023-03-14T02:04:20;93216.19;;;7.76;100.00
56330;BME280;42236;48.058;10.632;2023-03-14T02:07:12;93183.16;;;7.72;100.00
56330;BME280;42236;48.058;10.632;2023-03-14T02:09:59;93186.56;;;7.69;100.00
56330;BME280;42236;48.058;10.632;2023-03-14T02:12:48;93191.84;;;7.65;100.00
56330;BME280;42236;48.058;10.632;2023-03-14T02:15:34;93186.84;;;7.64;100.00
56330;BME280;42236;48.058;10.632;2023-03-14T02:18:20;93181.06;;;7.62;100.00
56330;BME280;42236;48.058;10.632;2023-03-14T02:21:18;93186.84;;;7.64;100.00
56330;BME280;42236;48.058;10.632;2023-03-14T02:24:35;93195.66;;;7.64;100.00
56330;BME280;42236;48.058;10.632;2023-03-14T02:27:25;93191.84;;;7.65;99.42
56330;BME280;42236;48.058;10.632;2023-03-14T02:30:15;93189.59;;;7.67;98.99
56330;BME280;42236;48.058;10.632;2023-03-14T02:33:05;93201.09;;;7.68;98.61
56330;BME280;42236;48.058;10.632;2023-03-14T02:39:08;93191.84;;;7.65;98.47
56330;BME280;42236;48.058;10.632;2023-03-14T02:41:56;93176.88;;;7.64;97.31
56330;BME280;42236;48.058;10.632;2023-03-14T02:45:01;;;;7.60;
56330;BME280;42236;48.058;10.632;2023-03-14T02:48:11;93176.03;;;7.60;96.10
56330;BME280;42236;48.058;10.632;2023-03-14T02:51:00;93186.78;;;7.60;96.17
56330;BME280;42236;48.058;10.632;2023-03-14T02:53:46;93177.19;;;7.59;96.08
56330;BME280;42236;48.058;10.632;2023-03-14T02:56:31;93179.75;;;7.52;96.40
56330;BME280;42236;48.058;10.632;2023-03-14T02:59:17;93180.47;;;7.49;96.25
56330;BME280;42236;48.058;10.632;2023-03-14T03:02:03;93183.41;;;7.44;96.30
56330;BME280;42236;48.058;10.632;2023-03-14T03:04:49;93185.28;;;7.40;95.72
56330;BME280;42236;48.058;10.632;2023-03-14T03:07:34;93186.38;;;7.39;95.84
56330;BME280;42236;48.058;10.632;2023-03-14T03:10:20;93188.66;;;7.37;95.80
56330;BME280;42236;48.058;10.632;2023-03-14T03:13:06;93190.94;;;7.35;95.60
56330;BME280;42236;48.058;10.632;2023-03-14T03:15:51;93188.94;;;7.32;95.49
56330;BME280;42236;48.058;10.632;2023-03-14T03:18:37;93182.75;;;7.28;95.49
56330;BME280;42236;48.058;10.632;2023-03-14T03:21:23;93164.31;;;7.26;95.33
56330;BME280;42236;48.058;10.632;2023-03-14T03:24:08;93164.66;;;7.24;95.45
56330;BME280;42236;48.058;10.632;2023-03-14T03:26:54;93159.31;;;7.24;95.20
56330;BME280;42236;48.058;10.632;2023-03-14T03:29:40;93153.16;;;7.24;95.25
56330;BME280;42236;48.058;10.632;2023-03-14T03:32:26;93147.81;;;7.24;94.83
56330;BME280;42236;48.058;10.632;2023-03-14T03:35:13;93145.50;;;7.22;95.04
56330;BME280;42236;48.058;10.632;2023-03-14T03:37:59;93145.50;;;7.22;94.77
56330;BME280;42236;48.058;10.632;2023-03-14T03:40:44;93141.25;;;7.21;94.99
56330;BME280;42236;48.058;10.632;2023-03-14T03:43:30;93142.38;;;7.20;94.77
56330;BME280;42236;48.058;10.632;2023-03-14T03:46:16;93142.38;;;7.20;94.69
56330;BME280;42236;48.058;10.632;2023-03-14T03:49:02;93144.66;;;7.18;94.86
56330;BME280;42236;48.058;10.632;2023-03-14T03:51:47;93155.81;;;7.20;94.33
56330;BME280;42236;48.058;10.632;2023-03-14T03:54:33;93162.28;;;7.19;95.00
56330;BME280;42236;48.058;10.632;2023-03-14T03:57:19;93163.84;;;7.20;94.50
56330;BME280;42236;48.058;10.632;2023-03-14T04:00:06;93175.34;;;7.21;94.38
56330;BME280;42236;48.058;10.632;2023-03-14T04:02:52;93164.63;;;7.21;94.03
56330;BME280;42236;48.058;10.632;2023-03-14T04:05:38;93169.63;;;7.22;93.42
56330;BME280;42236;48.058;10.632;2023-03-14T04:08:24;93155.44;;;7.22;93.54
56330;BME280;42236;48.058;10.632;2023-03-14T04:11:10;93155.81;;;7.20;93.46
56330;BME280;42236;48.058;10.632;2023-03-14T04:13:55;93151.56;;;7.19;93.11
56330;BME280;42236;48.058;10.632;2023-03-14T04:16:41;93132.00;;;7.19;92.34
56330;BME280;42236;48.058;10.632;2023-03-14T04:19:27;93127.41;;;7.19;92.21
56330;BME280;42236;48.058;10.632;2023-03-14T04:22:12;93131.25;;;7.18;91.86
56330;BME280;42236;48.058;10.632;2023-03-14T04:24:58;93128.56;;;7.18;91.80
56330;BME280;42236;48.058;10.632;2023-03-14T04:27:44;93123.97;;;7.19;91.44
56330;BME280;42236;48.058;10.632;2023-03-14T04:30:29;93128.56;;;7.18;91.54
56330;BME280;42236;48.058;10.632;2023-03-14T04:33:15;93123.97;;;7.19;91.31
56330;BME280;42236;48.058;10.632;2023-03-14T04:36:03;93110.91;;;7.17;91.14
56330;BME280;42236;48.058;10.632;2023-03-14T04:38:49;93116.25;;;7.17;90.97
56330;BME280;42236;48.058;10.632;2023-03-14T04:41:35;93096.28;;;7.15;91.10
56330;BME280;42236;48.058;10.632;2023-03-14T04:44:20;93085.53;;;7.11;91.34
56330;BME280;42236;48.058;10.632;2023-03-14T04:47:06;93087.44;;;7.11;91.34
56330;BME280;42236;48.058;10.632;2023-03-14T04:49:52;93083.59;;;7.12;90.89
56330;BME280;42236;48.058;10.632;2023-03-14T04:52:37;93089.31;;;7.10;91.10
56330;BME280;42236;48.058;10.632;2023-03-14T04:55:23;93086.63;;;7.10;91.03
56330;BME280;42236;48.058;10.632;2023-03-14T04:58:12;93089.75;;;7.12;90.69
56330;BME280;42236;48.058;10.632;2023-03-14T05:01:02;93081.69;;;7.12;90.31
56330;BME280;42236;48.058;10.632;2023-03-14T05:03:49;93083.25;;;7.13;89.95
56330;BME280;42236;48.058;10.632;2023-03-14T05:06:34;93074.06;;;7.14;90.27
56330;BME280;42236;48.058;10.632;2023-03-14T05:09:20;93069.44;;;7.11;90.38
56330;BME280;42236;48.058;10.632;2023-03-14T05:12:06;93066.31;;;7.09;90.57
56330;BME280;42236;48.058;10.632;2023-03-14T05:14:52;93053.66;;;7.06;90.46
56330;BME280;42236;48.058;10.632;2023-03-14T05:17:37;93054.75;;;7.05;90.80
56330;BME280;42236;48.058;10.632;2023-03-14T05:20:23;93055.56;;;7.05;90.23
56330;BME280;42236;48.058;10.632;2023-03-14T05:23:09;93043.34;;;7.08;90.26
56330;BME280;42236;48.058;10.632;2023-03-14T05:25:55;93034.88;;;7.06;90.14
56330;BME280;42236;48.058;10.632;2023-03-14T05:28:41;93026.06;;;7.05;89.79
56330;BME280;42236;48.058;10.632;2023-03-14T05:31:26;93030.28;;;7.07;90.05
56330;BME280;42236;48.058;10.632;2023-03-14T05:34:12;93022.25;;;7.07;90.05
56330;BME280;42236;48.058;10.632;2023-03-14T05:36:58;93025.69;;;7.07;89.90
56330;BME280;42236;48.058;10.632;2023-03-14T05:39:43;93014.91;;;7.03;90.19
56330;BME280;42236;48.058;10.632;2023-03-14T05:42:29;93018.78;;;7.06;90.05
56330;BME280;42236;48.058;10.632;2023-03-14T05:45:15;93021.03;;;7.04;90.39
56330;BME280;42236;48.058;10.632;2023-03-14T05:48:00;93008.06;;;7.06;89.94
56330;BME280;42236;48.058;10.632;2023-03-14T05:50:46;93009.19;;;7.05;90.00
56330;BME280;42236;48.058;10.632;2023-03-14T05:53:32;93007.28;;;7.05;90.02
56330;BME280;42236;48.058;10.632;2023-03-14T05:56:17;93001.97;;;7.09;89.61
56330;BME280;42236;48.058;10.632;2023-03-14T05:59:03;93000.84;;;7.10;89.47
56330;BME280;42236;48.058;10.632;2023-03-14T06:01:48;92992.09;;;7.13;89.37
56330;BME280;42236;48.058;10.632;2023-03-14T06:04:34;92984.81;;;7.14;89.60
56330;BME280;42236;48.058;10.632;2023-03-14T06:07:20;92983.66;;;7.15;89.44
56330;BME280;42236;48.058;10.632;2023-03-14T06:10:06;92991.03;;;7.18;89.42
56330;BME280;42236;48.058;10.632;2023-03-14T06:12:52;92980.69;;;7.20;89.35
56330;BME280;42236;48.058;10.632;2023-03-14T06:15:38;92972.28;;;7.21;88.74
56330;BME280;42236;48.058;10.632;2023-03-14T06:18:23;92953.94;;;7.23;88.55
56330;BME280;42236;48.058;10.632;2023-03-14T06:21:09;92951.66;;;7.25;88.17
56330;BME280;42236;48.058;10.632;2023-03-14T06:23:55;92947.13;;;7.30;88.02
56330;BME280;42236;48.058;10.632;2023-03-14T06:26:40;92951.78;;;7.33;87.61
56330;BME280;42236;48.058;10.632;2023-03-14T06:29:26;92953.31;;;7.34;87.51
56330;BME280;42236;48.058;10.632;2023-03-14T06:32:11;92958.75;;;7.37;87.32
56330;BME280;42236;48.058;10.632;2023-03-14T06:34:57;92980.13;;;7.34;86.96
56330;BME280;42236;48.058;10.632;2023-03-14T06:37:46;92987.44;;;7.37;86.84
56330;BME280;42236;48.058;10.632;2023-03-14T06:40:32;92989.78;;;7.38;86.85
56330;BME280;42236;48.058;10.632;2023-03-14T06:43:17;92993.22;;;7.39;86.46
56330;BME280;42236;48.058;10.632;2023-03-14T06:46:03;92998.66;;;7.42;86.35
56330;BME280;42236;48.058;10.632;2023-03-14T06:48:49;93005.16;;;7.41;86.16
56330;BME280;42236;48.058;10.632;2023-03-14T06:51:34;93007.91;;;7.45;86.31
56330;BME280;42236;48.058;10.632;2023-03-14T06:54:20;92989.53;;;7.47;85.89
56330;BME280;42236;48.058;10.632;2023-03-14T06:57:09;92990.31;;;7.47;85.59
56330;BME280;42236;48.058;10.632;2023-03-14T06:59:54;92998.78;;;7.50;85.77
56330;BME280;42236;48.058;10.632;2023-03-14T07:02:40;92991.06;;;7.48;85.19
56330;BME280;42236;48.058;10.632;2023-03-14T07:05:26;92992.25;;;7.51;85.10
56330;BME280;42236;48.058;10.632;2023-03-14T07:08:12;93000.38;;;7.54;84.49
56330;BME280;42236;48.058;10.632;2023-03-14T07:10:58;92987.72;;;7.55;84.79
56330;BME280;42236;48.058;10.632;2023-03-14T07:13:43;92993.13;;;7.58;84.44
56330;BME280;42236;48.058;10.632;2023-03-14T07:16:29;92987.41;;;7.60;84.58
56330;BME280;42236;48.058;10.632;2023-03-14T07:19:18;92993.97;;;7.62;84.17
56330;BME280;42236;48.058;10.632;2023-03-14T07:22:04;92991.34;;;7.66;83.81
56330;BME280;42236;48.058;10.632;2023-03-14T07:24:50;92994.06;;;7.69;83.54
56330;BME280;42236;48.058;10.632;2023-03-14T07:27:35;92994.53;;;7.75;83.51
56330;BME280;42236;48.058;10.632;2023-03-14T07:30:21;92988.81;;;7.77;83.46
56330;BME280;42236;48.058;10.632;2023-03-14T07:33:07;92985.38;;;7.80;83.14
56330;BME280;42236;48.058;10.632;2023-03-14T07:35:52;92988.06;;;7.80;83.18
56330;BME280;42236;48.058;10.632;2023-03-14T07:38:38;92990.06;;;7.83;82.72
56330;BME280;42236;48.058;10.632;2023-03-14T07:41:24;92989.72;;;7.88;82.81
56330;BME280;42236;48.058;10.632;2023-03-14T07:44:09;92990.59;;;7.96;82.61
56330;BME280;42236;48.058;10.632;2023-03-14T07:46:55;92999.47;;;8.00;82.55
56330;BME280;42236;48.058;10.632;2023-03-14T07:49:41;92999.50;;;8.03;82.15
56330;BME280;42236;48.058;10.632;2023-03-14T07:52:26;92997.25;;;8.05;82.21
56330;BME280;42236;48.058;10.632;2023-03-14T07:55:12;93011.13;;;8.11;82.25
56330;BME280;42236;48.058;10.632;2023-03-14T07:57:58;93008.09;;;8.16;82.33
56330;BME280;42236;48.058;10.632;2023-03-14T08:00:44;93011.25;;;8.22;81.58
56330;BME280;42236;48.058;10.632;2023-03-14T08:03:30;93013.63;;;8.27;81.50
56330;BME280;42236;48.058;10.632;2023-03-14T08:06:16;93011.72;;;8.31;81.24
56330;BME280;42236;48.058;10.632;2023-03-14T08:09:03;93012.97;;;8.37;81.03
56330;BME280;42236;48.058;10.632;2023-03-14T08:11:48;93019.22;;;8.45;80.87
56330;BME280;42236;48.058;10.632;2023-03-14T08:14:34;93021.59;;;8.50;80.46
56330;BME280;42236;48.058;10.632;2023-03-14T08:17:20;93025.13;;;8.58;80.54
56330;BME280;42236;48.058;10.632;2023-03-14T08:20:06;93022.50;;;8.65;80.41
56330;BME280;42236;48.058;10.632;2023-03-14T08:22:58;93018.38;;;8.74;80.41
56330;BME280;42236;48.058;10.632;2023-03-14T08:25:44;93026.53;;;8.82;80.06
56330;BME280;42236;48.058;10.632;2023-03-14T08:28:30;93015.84;;;8.89;79.79
56330;BME280;42236;48.058;10.632;2023-03-14T08:31:18;93005.16;;;8.96;79.22
56330;BME280;42236;48.058;10.632;2023-03-14T08:34:03;93008.66;;;8.96;78.41
56330;BME280;42236;48.058;10.632;2023-03-14T08:36:49;93011.41;;;9.04;78.38
56330;BME280;42236;48.058;10.632;2023-03-14T08:39:35;93008.38;;;9.12;78.43
56330;BME280;42236;48.058;10.632;2023-03-14T08:42:21;93008.03;;;9.17;77.92
56330;BME280;42236;48.058;10.632;2023-03-14T08:45:08;93010.78;;;9.21;77.39
56330;BME280;42236;48.058;10.632;2023-03-14T08:47:54;92997.41;;;9.28;77.05
56330;BME280;42236;48.058;10.632;2023-03-14T08:50:39;93009.34;;;9.34;76.44
56330;BME280;42236;48.058;10.632;2023-03-14T08:53:25;92999.41;;;9.42;75.16
56330;BME280;42236;48.058;10.632;2023-03-14T08:56:11;92992.47;;;9.41;75.64
56330;BME280;42236;48.058;10.632;2023-03-14T08:58:56;92996.34;;;9.40;74.23
56330;BME280;42236;48.058;10.632;2023-03-14T09:01:42;92998.63;;;9.42;75.40
56330;BME280;42236;48.058;10.632;2023-03-14T09:04:28;92999.03;;;9.44;73.22
56330;BME280;42236;48.058;10.632;2023-03-14T09:07:13;92988.28;;;9.44;73.96
56330;BME280;42236;48.058;10.632;2023-03-14T09:09:59;92991.03;;;9.51;74.63
56330;BME280;42236;48.058;10.632;2023-03-14T09:12:45;92996.50;;;9.65;74.43
56330;BME280;42236;48.058;10.632;2023-03-14T09:15:31;93008.09;;;9.69;73.86
56330;BME280;42236;48.058;10.632;2023-03-14T09:18:16;93003.13;;;9.78;73.71
56330;BME280;42236;48.058;10.632;2023-03-14T09:21:02;92999.72;;;9.89;73.21
56330;BME280;42236;48.058;10.632;2023-03-14T09:23:48;93000.13;;;9.91;72.32
56330;BME280;42236;48.058;10.632;2023-03-14T09:26:34;92995.97;;;10.00;72.66
56330;BME280;42236;48.058;10.632;2023-03-14T09:29:20;93010.25;;;10.12;71.02
56330;BME280;42236;48.058;10.632;2023-03-14T09:32:06;93006.88;;;10.29;71.40
56330;BME280;42236;48.058;10.632;2023-03-14T09:34:51;92999.25;;;10.42;71.32
56330;BME280;42236;48.058;10.632;2023-03-14T09:37:37;92998.84;;;10.40;70.03
56330;BME280;42236;48.058;10.632;2023-03-14T09:40:23;92996.16;;;10.43;68.91
56330;BME280;42236;48.058;10.632;2023-03-14T09:43:11;92990.78;;;10.43;67.90
56330;BME280;42236;48.058;10.632;2023-03-14T09:46:01;92995.41;;;10.50;67.45
56330;BME280;42236;48.058;10.632;2023-03-14T09:48:48;92998.16;;;10.54;68.85
56330;BME280;42236;48.058;10.632;2023-03-14T09:51:34;93012.78;;;10.56;67.98
56330;BME280;42236;48.058;10.632;2023-03-14T09:54:31;93007.38;;;10.49;66.85
56330;BME280;42236;48.058;10.632;2023-03-14T09:57:22;93021.59;;;10.46;67.27
56330;BME280;42236;48.058;10.632;2023-03-14T10:00:20;93004.69;;;10.49;67.16
56330;BME280;42236;48.058;10.632;2023-03-14T10:03:45;93012.41;;;10.54;66.66
56330;BME280;42236;48.058;10.632;2023-03-14T10:06:32;93014.38;;;10.72;67.81
56330;BME280;42236;48.058;10.632;2023-03-14T10:09:23;93014.75;;;10.74;67.13
56330;BME280;42236;48.058;10.632;2023-03-14T10:12:34;93006.28;;;10.82;64.79
56330;BME280;42236;48.058;10.632;2023-03-14T10:15:34;93001.31;;;10.81;65.86
56330;BME280;42236;48.058;10.632;2023-03-14T10:18:22;93022.53;;;10.93;67.46
56330;BME280;42236;48.058;10.632;2023-03-14T10:21:26;93009.44;;;11.06;65.33
56330;BME280;42236;48.058;10.632;2023-03-14T10:24:27;93009.84;;;11.19;66.42
56330;BME280;42236;48.058;10.632;2023-03-14T10:27:20;93010.59;;;11.16;66.11
56330;BME280;42236;48.058;10.632;2023-03-14T10:30:08;93003.69;;;11.29;65.12
56330;BME280;42236;48.058;10.632;2023-03-14T10:33:32;93031.47;;;11.47;63.36
56330;BME280;42236;48.058;10.632;2023-03-14T10:36:24;93008.72;;;11.56;61.13
56330;BME280;42236;48.058;10.632;2023-03-14T10:39:25;93005.63;;;11.53;60.56
56330;BME280;42236;48.058;10.632;2023-03-14T10:42:19;93010.25;;;11.71;63.75
56330;BME280;42236;48.058;10.632;2023-03-14T10:45:28;93004.44;;;11.76;59.11
56330;BME280;42236;48.058;10.632;2023-03-14T10:48:22;93017.19;;;11.65;59.88
56330;BME280;42236;48.058;10.632;2023-03-14T10:51:20;93004.84;;;11.57;57.84
56330;BME280;42236;48.058;10.632;2023-03-14T10:54:35;93017.56;;;11.35;59.62
56330;BME280;42236;48.058;10.632;2023-03-14T10:57:21;93023.72;;;11.28;60.58
56330;BME280;42236;48.058;10.632;2023-03-14T11:00:19;93022.56;;;11.25;60.43
56330;BME280;42236;48.058;10.632;2023-03-14T11:03:11;93016.41;;;11.25;61.42
56330;BME280;42236;48.058;10.632;2023-03-14T11:06:27;93032.97;;;11.30;59.95
56330;BME280;42236;48.058;10.632;2023-03-14T11:09:28;93021.81;;;11.50;60.04
56330;BME280;42236;48.058;10.632;2023-03-14T11:15:36;93025.28;;;11.61;57.11
56330;BME280;42236;48.058;10.632;2023-03-14T11:21:52;93026.81;;;11.77;58.13
56330;BME280;42236;48.058;10.632;2023-03-14T11:25:13;93040.75;;;11.89;58.33
56330;BME280;42236;48.058;10.632;2023-03-14T11:31:26;93024.91;;;11.70;58.07
56330;BME280;42236;48.058;10.632;2023-03-14T11:37:31;93053.44;;;11.42;58.41
56330;BME280;42236;48.058;10.632;2023-03-14T11:40:21;93055.00;;;11.40;60.19
56330;BME280;42236;48.058;10.632;2023-03-14T11:45:58;93051.13;;;11.37;61.75
56330;BME280;42236;48.058;10.632;2023-03-14T11:51:56;93048.81;;;11.28;61.82
56330;BME280;42236;48.058;10.632;2023-03-14T11:54:51;93051.13;;;11.44;61.65
56330;BME280;42236;48.058;10.632;2023-03-14T11:57:39;93047.69;;;11.51;61.75
56330;BME280;42236;48.058;10.632;2023-03-14T12:00:25;93044.59;;;11.49;61.89
56330;BME280;42236;48.058;10.632;2023-03-14T12:06:25;93031.78;;;11.06;61.82
56330;BME280;42236;48.058;10.632;2023-03-14T12:09:15;93050.28;;;11.01;62.90
56330;BME280;42236;48.058;10.632;2023-03-14T12:12:03;93047.19;;;10.99;63.43
56330;BME280;42236;48.058;10.632;2023-03-14T12:14:58;93041.81;;;11.06;62.77
56330;BME280;42236;48.058;10.632;2023-03-14T12:17:44;93041.50;;;11.29;62.11
56330;BME280;42236;48.058;10.632;2023-03-14T12:20:36;93060.38;;;11.32;62.20
56330;BME280;42236;48.058;10.632;2023-03-14T12:23:25;93046.13;;;11.39;62.99
56330;BME280;42236;48.058;10.632;2023-03-14T12:31:47;93084.31;;;11.41;64.02
56330;BME280;42236;48.058;10.632;2023-03-14T12:34:39;93077.75;;;11.46;65.08
56330;BME280;42236;48.058;10.632;2023-03-14T12:37:45;93075.03;;;11.42;64.33
56330;BME280;42236;48.058;10.632;2023-03-14T12:40:36;93091.59;;;11.30;63.44
56330;BME280;42236;48.058;10.632;2023-03-14T12:43:30;93088.13;;;11.12;65.34
56330;BME280;42236;48.058;10.632;2023-03-14T12:46:26;93093.38;;;10.79;65.65
56330;BME280;42236;48.058;10.632;2023-03-14T12:49:12;93085.53;;;10.45;66.64
56330;BME280;42236;48.058;10.632;2023-03-14T12:52:01;93109.38;;;10.40;68.06
56330;BME280;42236;48.058;10.632;2023-03-14T12:57:40;93111.25;;;9.80;73.73
56330;BME280;42236;48.058;10.632;2023-03-14T13:00:31;93105.53;;;9.45;75.09
56330;BME280;42236;48.058;10.632;2023-03-14T13:03:20;93109.50;;;9.17;77.54
56330;BME280;42236;48.058;10.632;2023-03-14T13:06:10;93112.91;;;8.76;79.36
56330;BME280;42236;48.058;10.632;2023-03-14T13:08:57;93118.41;;;8.53;81.79
56330;BME280;42236;48.058;10.632;2023-03-14T13:11:42;93123.25;;;8.44;83.40
56330;BME280;42236;48.058;10.632;2023-03-14T13:14:29;93124.00;;;8.41;82.33
56330;BME280;42236;48.058;10.632;2023-03-14T13:17:24;93133.19;;;8.40;83.19
56330;BME280;42236;48.058;10.632;2023-03-14T13:20:16;93150.66;;;8.30;85.01
56330;BME280;42236;48.058;10.632;2023-03-14T13:23:04;93131.97;;;8.11;83.63
56330;BME280;42236;48.058;10.632;2023-03-14T13:25:50;93139.28;;;7.87;86.33
56330;BME280;42236;48.058;10.632;2023-03-14T13:28:36;93137.31;;;7.84;86.21
56330;BME280;42236;48.058;10.632;2023-03-14T13:31:25;93152.97;;;7.79;85.95
56330;BME280;42236;48.058;10.632;2023-03-14T13:34:11;93171.34;;;7.77;86.40
56330;BME280;42236;48.058;10.632;2023-03-14T13:36:57;93170.16;;;7.74;85.10
56330;BME280;42236;48.058;10.632;2023-03-14T13:39:49;93187.63;;;7.64;85.65
56330;BME280;42236;48.058;10.632;2023-03-14T13:42:34;93191.72;;;7.58;85.03
56330;BME280;42236;48.058;10.632;2023-03-14T13:45:20;93207.16;;;7.42;85.80
56330;BME280;42236;48.058;10.632;2023-03-14T13:48:09;93220.69;;;7.30;87.23
56330;BME280;42236;48.058;10.632;2023-03-14T13:51:01;93222.13;;;7.23;86.20
56330;BME280;42236;48.058;10.632;2023-03-14T13:53:52;93234.25;;;7.17;86.66
56330;BME280;42236;48.058;10.632;2023-03-14T13:56:38;93237.81;;;7.21;87.64
56330;BME280;42236;48.058;10.632;2023-03-14T13:59:32;93243.59;;;7.23;88.24
56330;BME280;42236;48.058;10.632;2023-03-14T14:02:24;93249.38;;;7.25;87.55
56330;BME280;42236;48.058;10.632;2023-03-14T14:05:11;93254.31;;;7.23;87.86
56330;BME280;42236;48.058;10.632;2023-03-14T14:07:57;93278.59;;;7.11;87.92
56330;BME280;42236;48.058;10.632;2023-03-14T14:10:47;93258.53;;;7.05;89.14
56330;BME280;42236;48.058;10.632;2023-03-14T14:13:34;93289.00;;;6.97;88.58
56330;BME280;42236;48.058;10.632;2023-03-14T14:16:24;93285.91;;;6.95;88.37
56330;BME280;42236;48.058;10.632;2023-03-14T14:19:12;93310.47;;;6.97;88.15
56330;BME280;42236;48.058;10.632;2023-03-14T14:21:59;93316.53;;;6.94;89.09
56330;BME280;42236;48.058;10.632;2023-03-14T14:24:45;93317.31;;;6.94;88.37
56330;BME280;42236;48.058;10.632;2023-03-14T14:27:41;93314.97;;;6.93;88.84
56330;BME280;42236;48.058;10.632;2023-03-14T14:30:32;93324.16;;;6.92;89.20
56330;BME280;42236;48.058;10.632;2023-03-14T14:33:20;93328.38;;;6.93;89.80
56330;BME280;42236;48.058;10.632;2023-03-14T14:36:16;93329.94;;;6.94;90.21
56330;BME280;42236;48.058;10.632;2023-03-14T14:39:09;93346.97;;;6.86;88.40
56330;BME280;42236;48.058;10.632;2023-03-14T14:41:57;93351.63;;;7.04;88.29
56330;BME280;42236;48.058;10.632;2023-03-14T14:44:43;93359.91;;;7.15;88.05
56330;BME280;42236;48.058;10.632;2023-03-14T14:47:29;93370.97;;;7.14;87.42
56330;BME280;42236;48.058;10.632;2023-03-14T14:50:38;93361.13;;;7.02;87.45
56330;BME280;42236;48.058;10.632;2023-03-14T14:56:28;93392.09;;;6.83;88.09
56330;BME280;42236;48.058;10.632;2023-03-14T14:59:24;93400.94;;;6.84;88.63
56330;BME280;42236;48.058;10.632;2023-03-14T15:02:40;93410.53;;;6.85;86.39
56330;BME280;42236;48.058;10.632;2023-03-14T15:05:30;93421.94;;;6.82;86.68
56330;BME280;42236;48.058;10.632;2023-03-14T15:08:21;93431.38;;;6.60;84.21
56330;BME280;42236;48.058;10.632;2023-03-14T15:11:11;93432.03;;;6.57;85.77
56330;BME280;42236;48.058;10.632;2023-03-14T15:14:01;93434.63;;;6.69;85.53
56330;BME280;42236;48.058;10.632;2023-03-14T15:16:46;93441.31;;;6.75;83.85
56330;BME280;42236;48.058;10.632;2023-03-14T15:19:32;93446.66;;;6.75;81.05
56330;BME280;42236;48.058;10.632;2023-03-14T15:22:18;93458.72;;;6.81;80.68
56330;BME280;42236;48.058;10.632;2023-03-14T15:25:04;93471.84;;;6.87;80.00
56330;BME280;42236;48.058;10.632;2023-03-14T15:27:50;93464.31;;;6.92;77.30